RKTU/CHN METAR and TAF weather

Enter ICAO airport designator
Station Type Date Time Source
RKTU METAR 2021/01/22 06:00 UTC NOAA

RKTU 220600Z 02003KT 8000 BKN011 OVC015 08/07 Q1018


Station Type Date Time Source
RKTU Decoded METAR 2021/01/22 06:00 UTC NOAA

Chongju Ab, Korea, South (RKTU) 36-42N 127-30E 66M
Jan 22, 2021 - 01:00 AM EST / 2021.01.22 0600 UTC
Wind: from the NNE (020 degrees) at 3 MPH (3 KT):0
Visibility: 4 mile(s):0
Sky conditions: overcast
Temperature: 46 F (8 C)
Dew Point: 44 F (7 C)
Relative Humidity: 93%
Pressure (altimeter): 30.06 in. Hg (1018 hPa)
ob: RKTU 220600Z 02003KT 8000 BKN011 OVC015 08/07 Q1018
cycle: 6

Station Type Date Time Source
RKTU TAF 2021/01/22 06:09 UTC NOAA

TAF RKTU 220500Z 2206/2312 36006KT 4800 BR BKN010 BKN180 TN01/2222Z TX11/2306Z
BECMG 2214/2215 06006KT BKN030 BKN180

Example: see airport list